sensor_id;sensor_type;location;lat;lon;timestamp;P1;durP1;ratioP1;P2;durP2;ratioP2
67747;SDS011;54543;50.712;6.070;2024-02-26T00:01:38;1.95;;;0.82;;
67747;SDS011;54543;50.712;6.070;2024-02-26T00:04:04;1.15;;;0.85;;
67747;SDS011;54543;50.712;6.070;2024-02-26T00:06:30;1.42;;;0.90;;
67747;SDS011;54543;50.712;6.070;2024-02-26T00:08:56;1.25;;;0.80;;
67747;SDS011;54543;50.712;6.070;2024-02-26T00:11:22;0.90;;;0.80;;
67747;SDS011;54543;50.712;6.070;2024-02-26T00:13:47;1.50;;;1.00;;
67747;SDS011;54543;50.712;6.070;2024-02-26T00:16:13;0.80;;;0.80;;
67747;SDS011;54543;50.712;6.070;2024-02-26T00:18:38;0.90;;;0.80;;
67747;SDS011;54543;50.712;6.070;2024-02-26T00:21:04;0.80;;;0.80;;
67747;SDS011;54543;50.712;6.070;2024-02-26T00:23:30;1.02;;;0.70;;
67747;SDS011;54543;50.712;6.070;2024-02-26T00:25:55;2.13;;;0.90;;
67747;SDS011;54543;50.712;6.070;2024-02-26T00:28:21;0.68;;;0.50;;
67747;SDS011;54543;50.712;6.070;2024-02-26T00:30:48;1.08;;;0.88;;
67747;SDS011;54543;50.712;6.070;2024-02-26T00:33:16;1.63;;;0.90;;
67747;SDS011;54543;50.712;6.070;2024-02-26T00:35:42;1.20;;;0.80;;
67747;SDS011;54543;50.712;6.070;2024-02-26T00:38:08;1.02;;;0.77;;
67747;SDS011;54543;50.712;6.070;2024-02-26T00:40:33;1.25;;;1.00;;
67747;SDS011;54543;50.712;6.070;2024-02-26T00:42:59;1.40;;;0.80;;
67747;SDS011;54543;50.712;6.070;2024-02-26T00:45:25;1.30;;;0.77;;
67747;SDS011;54543;50.712;6.070;2024-02-26T00:47:50;0.82;;;0.82;;
67747;SDS011;54543;50.712;6.070;2024-02-26T00:50:16;0.82;;;0.80;;
67747;SDS011;54543;50.712;6.070;2024-02-26T00:52:42;1.15;;;0.95;;
67747;SDS011;54543;50.712;6.070;2024-02-26T00:55:07;1.27;;;0.90;;
67747;SDS011;54543;50.712;6.070;2024-02-26T00:57:33;2.85;;;0.93;;
67747;SDS011;54543;50.712;6.070;2024-02-26T00:59:59;1.77;;;1.10;;
67747;SDS011;54543;50.712;6.070;2024-02-26T01:02:25;1.15;;;0.90;;
67747;SDS011;54543;50.712;6.070;2024-02-26T01:04:51;1.17;;;1.00;;
67747;SDS011;54543;50.712;6.070;2024-02-26T01:07:17;1.63;;;1.00;;
67747;SDS011;54543;50.712;6.070;2024-02-26T01:09:42;1.20;;;0.90;;
67747;SDS011;54543;50.712;6.070;2024-02-26T01:12:08;2.30;;;1.13;;
67747;SDS011;54543;50.712;6.070;2024-02-26T01:14:34;0.98;;;0.82;;
67747;SDS011;54543;50.712;6.070;2024-02-26T01:16:59;2.03;;;1.08;;
67747;SDS011;54543;50.712;6.070;2024-02-26T01:19:25;1.45;;;1.10;;
67747;SDS011;54543;50.712;6.070;2024-02-26T01:21:50;1.73;;;1.00;;
67747;SDS011;54543;50.712;6.070;2024-02-26T01:24:16;1.27;;;1.00;;
67747;SDS011;54543;50.712;6.070;2024-02-26T01:26:41;1.83;;;1.00;;
67747;SDS011;54543;50.712;6.070;2024-02-26T01:29:07;2.60;;;1.20;;
67747;SDS011;54543;50.712;6.070;2024-02-26T01:31:32;1.58;;;1.10;;
67747;SDS011;54543;50.712;6.070;2024-02-26T01:33:58;2.13;;;1.00;;
67747;SDS011;54543;50.712;6.070;2024-02-26T01:36:23;2.50;;;1.30;;
67747;SDS011;54543;50.712;6.070;2024-02-26T01:38:50;2.53;;;1.38;;
67747;SDS011;54543;50.712;6.070;2024-02-26T01:41:16;1.08;;;1.00;;
67747;SDS011;54543;50.712;6.070;2024-02-26T01:43:41;1.83;;;1.00;;
67747;SDS011;54543;50.712;6.070;2024-02-26T01:46:08;1.10;;;1.00;;
67747;SDS011;54543;50.712;6.070;2024-02-26T01:48:41;1.10;;;1.00;;
67747;SDS011;54543;50.712;6.070;2024-02-26T01:51:07;1.58;;;1.10;;
67747;SDS011;54543;50.712;6.070;2024-02-26T01:53:34;1.33;;;1.10;;
67747;SDS011;54543;50.712;6.070;2024-02-26T01:56:00;1.88;;;1.10;;
67747;SDS011;54543;50.712;6.070;2024-02-26T01:58:28;1.23;;;0.95;;
67747;SDS011;54543;50.712;6.070;2024-02-26T02:00:55;1.05;;;0.95;;
67747;SDS011;54543;50.712;6.070;2024-02-26T02:03:21;1.77;;;1.08;;
67747;SDS011;54543;50.712;6.070;2024-02-26T02:05:47;1.50;;;1.13;;
67747;SDS011;54543;50.712;6.070;2024-02-26T02:08:13;1.10;;;1.00;;
67747;SDS011;54543;50.712;6.070;2024-02-26T02:10:39;1.48;;;0.90;;
67747;SDS011;54543;50.712;6.070;2024-02-26T02:13:07;1.50;;;0.95;;
67747;SDS011;54543;50.712;6.070;2024-02-26T02:15:32;1.40;;;1.00;;
67747;SDS011;54543;50.712;6.070;2024-02-26T02:17:58;1.40;;;1.08;;
67747;SDS011;54543;50.712;6.070;2024-02-26T02:20:33;2.08;;;1.20;;
67747;SDS011;54543;50.712;6.070;2024-02-26T02:22:59;1.40;;;1.00;;
67747;SDS011;54543;50.712;6.070;2024-02-26T02:25:25;1.48;;;0.95;;
67747;SDS011;54543;50.712;6.070;2024-02-26T02:27:51;0.98;;;0.93;;
67747;SDS011;54543;50.712;6.070;2024-02-26T02:30:22;1.27;;;1.17;;
67747;SDS011;54543;50.712;6.070;2024-02-26T02:32:51;2.17;;;1.00;;
67747;SDS011;54543;50.712;6.070;2024-02-26T02:35:18;1.25;;;1.10;;
67747;SDS011;54543;50.712;6.070;2024-02-26T02:37:44;1.60;;;1.10;;
67747;SDS011;54543;50.712;6.070;2024-02-26T02:40:09;1.02;;;0.85;;
67747;SDS011;54543;50.712;6.070;2024-02-26T02:42:35;0.88;;;0.70;;
67747;SDS011;54543;50.712;6.070;2024-02-26T02:45:01;0.95;;;0.80;;
67747;SDS011;54543;50.712;6.070;2024-02-26T02:47:26;2.40;;;0.90;;
67747;SDS011;54543;50.712;6.070;2024-02-26T02:49:52;1.05;;;0.90;;
67747;SDS011;54543;50.712;6.070;2024-02-26T02:52:17;1.30;;;0.88;;
67747;SDS011;54543;50.712;6.070;2024-02-26T02:54:43;2.00;;;0.90;;
67747;SDS011;54543;50.712;6.070;2024-02-26T02:57:08;2.13;;;1.08;;
67747;SDS011;54543;50.712;6.070;2024-02-26T02:59:35;1.27;;;0.93;;
67747;SDS011;54543;50.712;6.070;2024-02-26T03:02:01;1.55;;;1.05;;
67747;SDS011;54543;50.712;6.070;2024-02-26T03:04:26;1.38;;;0.95;;
67747;SDS011;54543;50.712;6.070;2024-02-26T03:06:52;1.33;;;1.10;;
67747;SDS011;54543;50.712;6.070;2024-02-26T03:09:17;1.58;;;1.20;;
67747;SDS011;54543;50.712;6.070;2024-02-26T03:11:43;1.60;;;1.27;;
67747;SDS011;54543;50.712;6.070;2024-02-26T03:14:09;1.15;;;0.80;;
67747;SDS011;54543;50.712;6.070;2024-02-26T03:16:35;1.77;;;1.00;;
67747;SDS011;54543;50.712;6.070;2024-02-26T03:19:00;1.38;;;0.90;;
67747;SDS011;54543;50.712;6.070;2024-02-26T03:21:28;1.02;;;0.93;;
67747;SDS011;54543;50.712;6.070;2024-02-26T03:23:53;1.90;;;1.10;;
67747;SDS011;54543;50.712;6.070;2024-02-26T03:26:19;2.13;;;1.10;;
67747;SDS011;54543;50.712;6.070;2024-02-26T03:28:45;1.50;;;1.00;;
67747;SDS011;54543;50.712;6.070;2024-02-26T03:31:10;1.58;;;1.05;;
67747;SDS011;54543;50.712;6.070;2024-02-26T03:33:36;2.88;;;1.40;;
67747;SDS011;54543;50.712;6.070;2024-02-26T03:36:01;2.28;;;1.10;;
67747;SDS011;54543;50.712;6.070;2024-02-26T03:38:28;1.35;;;1.15;;
67747;SDS011;54543;50.712;6.070;2024-02-26T03:40:55;1.67;;;1.27;;
67747;SDS011;54543;50.712;6.070;2024-02-26T03:43:21;1.30;;;1.10;;
67747;SDS011;54543;50.712;6.070;2024-02-26T03:45:46;1.00;;;0.90;;
67747;SDS011;54543;50.712;6.070;2024-02-26T03:48:12;1.90;;;1.30;;
67747;SDS011;54543;50.712;6.070;2024-02-26T03:50:37;1.52;;;1.20;;
67747;SDS011;54543;50.712;6.070;2024-02-26T03:53:03;1.20;;;1.10;;
67747;SDS011;54543;50.712;6.070;2024-02-26T03:55:29;1.85;;;0.88;;
67747;SDS011;54543;50.712;6.070;2024-02-26T03:57:54;3.28;;;1.20;;
67747;SDS011;54543;50.712;6.070;2024-02-26T04:00:20;1.42;;;1.20;;
67747;SDS011;54543;50.712;6.070;2024-02-26T04:02:48;1.65;;;1.33;;
67747;SDS011;54543;50.712;6.070;2024-02-26T04:05:14;2.08;;;1.25;;
67747;SDS011;54543;50.712;6.070;2024-02-26T04:07:40;1.67;;;1.27;;
67747;SDS011;54543;50.712;6.070;2024-02-26T04:10:09;2.08;;;1.30;;
67747;SDS011;54543;50.712;6.070;2024-02-26T04:12:37;2.58;;;1.40;;
67747;SDS011;54543;50.712;6.070;2024-02-26T04:15:12;1.45;;;1.15;;
67747;SDS011;54543;50.712;6.070;2024-02-26T04:17:37;1.42;;;1.10;;
67747;SDS011;54543;50.712;6.070;2024-02-26T04:20:04;1.75;;;1.10;;
67747;SDS011;54543;50.712;6.070;2024-02-26T04:22:30;1.42;;;1.15;;
67747;SDS011;54543;50.712;6.070;2024-02-26T04:24:57;2.05;;;1.30;;
67747;SDS011;54543;50.712;6.070;2024-02-26T04:27:22;2.20;;;1.30;;
67747;SDS011;54543;50.712;6.070;2024-02-26T04:29:48;1.80;;;1.30;;
67747;SDS011;54543;50.712;6.070;2024-02-26T04:32:13;2.90;;;1.33;;
67747;SDS011;54543;50.712;6.070;2024-02-26T04:34:39;2.20;;;1.27;;
67747;SDS011;54543;50.712;6.070;2024-02-26T04:37:04;1.83;;;1.10;;
67747;SDS011;54543;50.712;6.070;2024-02-26T04:39:30;1.63;;;1.10;;
67747;SDS011;54543;50.712;6.070;2024-02-26T04:41:55;2.13;;;1.45;;
67747;SDS011;54543;50.712;6.070;2024-02-26T04:44:21;2.40;;;1.48;;
67747;SDS011;54543;50.712;6.070;2024-02-26T04:46:46;2.38;;;1.33;;
67747;SDS011;54543;50.712;6.070;2024-02-26T04:49:12;1.00;;;0.90;;
67747;SDS011;54543;50.712;6.070;2024-02-26T04:51:38;3.22;;;1.48;;
67747;SDS011;54543;50.712;6.070;2024-02-26T04:54:03;3.58;;;1.70;;
67747;SDS011;54543;50.712;6.070;2024-02-26T04:56:29;2.13;;;1.40;;
67747;SDS011;54543;50.712;6.070;2024-02-26T04:58:54;1.75;;;1.30;;
67747;SDS011;54543;50.712;6.070;2024-02-26T05:01:20;2.20;;;1.33;;
67747;SDS011;54543;50.712;6.070;2024-02-26T05:03:46;2.15;;;1.40;;
67747;SDS011;54543;50.712;6.070;2024-02-26T05:06:11;1.10;;;1.00;;
67747;SDS011;54543;50.712;6.070;2024-02-26T05:08:37;1.63;;;1.10;;
67747;SDS011;54543;50.712;6.070;2024-02-26T05:11:03;2.20;;;1.30;;
67747;SDS011;54543;50.712;6.070;2024-02-26T05:13:29;2.53;;;1.75;;
67747;SDS011;54543;50.712;6.070;2024-02-26T05:15:55;1.75;;;1.40;;
67747;SDS011;54543;50.712;6.070;2024-02-26T05:18:21;3.03;;;1.77;;
67747;SDS011;54543;50.712;6.070;2024-02-26T05:20:47;2.08;;;1.50;;
67747;SDS011;54543;50.712;6.070;2024-02-26T05:23:12;2.90;;;1.80;;
67747;SDS011;54543;50.712;6.070;2024-02-26T05:25:38;1.92;;;1.45;;
67747;SDS011;54543;50.712;6.070;2024-02-26T05:28:04;1.65;;;1.40;;
67747;SDS011;54543;50.712;6.070;2024-02-26T05:30:29;2.40;;;1.75;;
67747;SDS011;54543;50.712;6.070;2024-02-26T05:32:55;2.00;;;1.40;;
67747;SDS011;54543;50.712;6.070;2024-02-26T05:35:20;3.80;;;1.58;;
67747;SDS011;54543;50.712;6.070;2024-02-26T05:37:46;2.58;;;1.63;;
67747;SDS011;54543;50.712;6.070;2024-02-26T05:40:12;3.22;;;2.28;;
67747;SDS011;54543;50.712;6.070;2024-02-26T05:42:37;2.45;;;1.63;;
67747;SDS011;54543;50.712;6.070;2024-02-26T05:45:03;4.95;;;2.78;;
67747;SDS011;54543;50.712;6.070;2024-02-26T05:47:34;2.38;;;1.75;;
67747;SDS011;54543;50.712;6.070;2024-02-26T05:50:00;2.90;;;2.20;;
67747;SDS011;54543;50.712;6.070;2024-02-26T05:52:26;2.33;;;1.77;;
67747;SDS011;54543;50.712;6.070;2024-02-26T05:54:53;4.57;;;2.50;;
67747;SDS011;54543;50.712;6.070;2024-02-26T05:57:19;4.75;;;2.67;;
67747;SDS011;54543;50.712;6.070;2024-02-26T05:59:50;3.95;;;2.28;;
67747;SDS011;54543;50.712;6.070;2024-02-26T06:02:16;4.35;;;2.40;;
67747;SDS011;54543;50.712;6.070;2024-02-26T06:04:41;3.03;;;1.85;;
67747;SDS011;54543;50.712;6.070;2024-02-26T06:07:07;3.30;;;2.13;;
67747;SDS011;54543;50.712;6.070;2024-02-26T06:09:32;3.35;;;2.03;;
67747;SDS011;54543;50.712;6.070;2024-02-26T06:11:58;2.42;;;1.60;;
67747;SDS011;54543;50.712;6.070;2024-02-26T06:14:23;2.65;;;1.63;;
67747;SDS011;54543;50.712;6.070;2024-02-26T06:16:49;3.88;;;1.90;;
67747;SDS011;54543;50.712;6.070;2024-02-26T06:19:15;2.80;;;1.70;;
67747;SDS011;54543;50.712;6.070;2024-02-26T06:21:40;2.40;;;1.60;;
67747;SDS011;54543;50.712;6.070;2024-02-26T06:24:06;3.97;;;1.98;;
67747;SDS011;54543;50.712;6.070;2024-02-26T06:26:32;2.13;;;1.70;;
67747;SDS011;54543;50.712;6.070;2024-02-26T06:29:01;3.13;;;1.70;;
67747;SDS011;54543;50.712;6.070;2024-02-26T06:31:29;2.38;;;1.52;;
67747;SDS011;54543;50.712;6.070;2024-02-26T06:33:54;2.15;;;1.40;;
67747;SDS011;54543;50.712;6.070;2024-02-26T06:36:21;2.03;;;1.50;;
67747;SDS011;54543;50.712;6.070;2024-02-26T06:38:47;1.42;;;1.25;;
67747;SDS011;54543;50.712;6.070;2024-02-26T06:41:12;1.80;;;1.40;;
67747;SDS011;54543;50.712;6.070;2024-02-26T06:43:38;2.50;;;1.70;;
67747;SDS011;54543;50.712;6.070;2024-02-26T06:46:03;1.95;;;1.33;;
67747;SDS011;54543;50.712;6.070;2024-02-26T06:48:31;2.20;;;1.40;;
67747;SDS011;54543;50.712;6.070;2024-02-26T06:50:56;1.70;;;1.35;;
67747;SDS011;54543;50.712;6.070;2024-02-26T06:53:22;4.82;;;1.85;;
67747;SDS011;54543;50.712;6.070;2024-02-26T06:55:48;3.40;;;1.70;;
67747;SDS011;54543;50.712;6.070;2024-02-26T06:58:15;1.55;;;1.30;;
67747;SDS011;54543;50.712;6.070;2024-02-26T07:00:41;3.03;;;1.83;;
67747;SDS011;54543;50.712;6.070;2024-02-26T07:03:07;2.55;;;1.70;;
67747;SDS011;54543;50.712;6.070;2024-02-26T07:05:32;2.95;;;1.63;;
67747;SDS011;54543;50.712;6.070;2024-02-26T07:07:58;1.83;;;1.40;;
67747;SDS011;54543;50.712;6.070;2024-02-26T07:10:23;4.10;;;2.15;;
67747;SDS011;54543;50.712;6.070;2024-02-26T07:12:49;3.00;;;1.88;;
67747;SDS011;54543;50.712;6.070;2024-02-26T07:15:14;2.65;;;1.70;;
67747;SDS011;54543;50.712;6.070;2024-02-26T07:17:40;2.75;;;1.77;;
67747;SDS011;54543;50.712;6.070;2024-02-26T07:20:12;2.60;;;1.67;;
67747;SDS011;54543;50.712;6.070;2024-02-26T07:22:39;2.85;;;1.70;;
67747;SDS011;54543;50.712;6.070;2024-02-26T07:25:04;2.28;;;1.80;;
67747;SDS011;54543;50.712;6.070;2024-02-26T07:27:33;2.17;;;1.52;;
67747;SDS011;54543;50.712;6.070;2024-02-26T07:29:58;2.35;;;1.60;;
67747;SDS011;54543;50.712;6.070;2024-02-26T07:32:24;1.85;;;1.27;;
67747;SDS011;54543;50.712;6.070;2024-02-26T07:34:49;1.65;;;1.20;;
67747;SDS011;54543;50.712;6.070;2024-02-26T07:37:15;1.92;;;1.23;;
67747;SDS011;54543;50.712;6.070;2024-02-26T07:39:40;2.53;;;1.50;;
67747;SDS011;54543;50.712;6.070;2024-02-26T07:42:06;3.25;;;1.70;;
67747;SDS011;54543;50.712;6.070;2024-02-26T07:44:32;1.67;;;1.23;;
67747;SDS011;54543;50.712;6.070;2024-02-26T07:46:58;2.88;;;1.50;;
67747;SDS011;54543;50.712;6.070;2024-02-26T07:49:24;1.45;;;1.27;;
67747;SDS011;54543;50.712;6.070;2024-02-26T07:51:49;2.22;;;1.20;;
67747;SDS011;54543;50.712;6.070;2024-02-26T07:54:15;1.67;;;1.30;;
67747;SDS011;54543;50.712;6.070;2024-02-26T07:56:41;1.80;;;1.17;;
67747;SDS011;54543;50.712;6.070;2024-02-26T07:59:06;2.33;;;1.50;;
67747;SDS011;54543;50.712;6.070;2024-02-26T08:01:32;4.35;;;1.80;;
67747;SDS011;54543;50.712;6.070;2024-02-26T08:03:58;2.17;;;1.50;;
67747;SDS011;54543;50.712;6.070;2024-02-26T08:06:24;2.30;;;1.50;;
67747;SDS011;54543;50.712;6.070;2024-02-26T08:08:50;2.78;;;1.60;;
67747;SDS011;54543;50.712;6.070;2024-02-26T08:11:16;2.20;;;1.60;;
67747;SDS011;54543;50.712;6.070;2024-02-26T08:13:41;2.03;;;1.50;;
67747;SDS011;54543;50.712;6.070;2024-02-26T08:16:07;1.73;;;1.52;;
67747;SDS011;54543;50.712;6.070;2024-02-26T08:18:32;2.97;;;1.90;;
67747;SDS011;54543;50.712;6.070;2024-02-26T08:20:58;2.25;;;1.60;;
67747;SDS011;54543;50.712;6.070;2024-02-26T08:23:23;2.17;;;1.65;;
67747;SDS011;54543;50.712;6.070;2024-02-26T08:25:50;2.45;;;1.83;;
67747;SDS011;54543;50.712;6.070;2024-02-26T08:28:15;2.20;;;1.70;;
67747;SDS011;54543;50.712;6.070;2024-02-26T08:30:43;2.08;;;1.58;;
67747;SDS011;54543;50.712;6.070;2024-02-26T08:33:09;2.60;;;1.88;;
67747;SDS011;54543;50.712;6.070;2024-02-26T08:35:35;1.92;;;1.65;;
67747;SDS011;54543;50.712;6.070;2024-02-26T08:38:01;2.40;;;1.60;;
67747;SDS011;54543;50.712;6.070;2024-02-26T08:40:29;2.08;;;1.60;;
67747;SDS011;54543;50.712;6.070;2024-02-26T08:42:54;1.88;;;1.50;;
67747;SDS011;54543;50.712;6.070;2024-02-26T08:45:21;1.67;;;1.38;;
67747;SDS011;54543;50.712;6.070;2024-02-26T08:47:46;1.63;;;1.33;;
67747;SDS011;54543;50.712;6.070;2024-02-26T08:50:13;2.08;;;1.42;;
67747;SDS011;54543;50.712;6.070;2024-02-26T08:52:39;1.42;;;1.33;;
67747;SDS011;54543;50.712;6.070;2024-02-26T08:55:06;2.03;;;1.55;;
67747;SDS011;54543;50.712;6.070;2024-02-26T08:57:33;1.73;;;1.40;;
67747;SDS011;54543;50.712;6.070;2024-02-26T08:59:59;2.38;;;1.48;;
67747;SDS011;54543;50.712;6.070;2024-02-26T09:02:26;1.48;;;1.35;;
67747;SDS011;54543;50.712;6.070;2024-02-26T09:04:51;1.38;;;1.15;;
67747;SDS011;54543;50.712;6.070;2024-02-26T09:07:19;2.03;;;1.10;;
67747;SDS011;54543;50.712;6.070;2024-02-26T09:09:45;1.50;;;1.27;;
67747;SDS011;54543;50.712;6.070;2024-02-26T09:12:10;2.08;;;1.50;;
67747;SDS011;54543;50.712;6.070;2024-02-26T09:14:36;1.20;;;1.10;;
67747;SDS011;54543;50.712;6.070;2024-02-26T09:17:02;2.03;;;1.42;;
67747;SDS011;54543;50.712;6.070;2024-02-26T09:19:27;1.30;;;1.20;;
67747;SDS011;54543;50.712;6.070;2024-02-26T09:21:53;2.35;;;1.27;;
67747;SDS011;54543;50.712;6.070;2024-02-26T09:24:22;2.40;;;1.50;;
67747;SDS011;54543;50.712;6.070;2024-02-26T09:26:49;2.00;;;1.42;;
67747;SDS011;54543;50.712;6.070;2024-02-26T09:29:14;1.42;;;1.15;;
67747;SDS011;54543;50.712;6.070;2024-02-26T09:31:40;1.88;;;1.25;;
67747;SDS011;54543;50.712;6.070;2024-02-26T09:34:06;3.75;;;1.80;;
67747;SDS011;54543;50.712;6.070;2024-02-26T09:36:33;1.33;;;1.10;;
67747;SDS011;54543;50.712;6.070;2024-02-26T09:38:59;1.73;;;1.30;;
67747;SDS011;54543;50.712;6.070;2024-02-26T09:41:24;1.70;;;1.30;;
67747;SDS011;54543;50.712;6.070;2024-02-26T09:43:55;2.83;;;1.00;;
67747;SDS011;54543;50.712;6.070;2024-02-26T09:46:22;1.75;;;1.20;;
67747;SDS011;54543;50.712;6.070;2024-02-26T09:48:49;1.88;;;1.00;;
67747;SDS011;54543;50.712;6.070;2024-02-26T09:51:15;1.00;;;0.90;;
67747;SDS011;54543;50.712;6.070;2024-02-26T09:53:43;0.77;;;0.77;;
67747;SDS011;54543;50.712;6.070;2024-02-26T09:56:11;1.02;;;0.90;;
67747;SDS011;54543;50.712;6.070;2024-02-26T09:58:38;0.80;;;0.75;;
67747;SDS011;54543;50.712;6.070;2024-02-26T10:01:06;2.03;;;1.00;;
67747;SDS011;54543;50.712;6.070;2024-02-26T10:03:40;1.08;;;0.90;;
67747;SDS011;54543;50.712;6.070;2024-02-26T10:06:10;1.08;;;0.77;;
67747;SDS011;54543;50.712;6.070;2024-02-26T10:08:36;1.50;;;0.93;;
67747;SDS011;54543;50.712;6.070;2024-02-26T10:11:12;1.15;;;0.80;;
67747;SDS011;54543;50.712;6.070;2024-02-26T10:13:39;1.15;;;0.95;;
67747;SDS011;54543;50.712;6.070;2024-02-26T10:16:06;1.75;;;0.90;;
67747;SDS011;54543;50.712;6.070;2024-02-26T10:18:48;0.55;;;0.55;;
67747;SDS011;54543;50.712;6.070;2024-02-26T10:21:17;0.65;;;0.65;;
67747;SDS011;54543;50.712;6.070;2024-02-26T10:23:44;1.08;;;0.80;;
67747;SDS011;54543;50.712;6.070;2024-02-26T10:26:11;0.68;;;0.50;;
67747;SDS011;54543;50.712;6.070;2024-02-26T10:28:37;5.45;;;3.03;;
67747;SDS011;54543;50.712;6.070;2024-02-26T10:31:04;3.08;;;1.60;;
67747;SDS011;54543;50.712;6.070;2024-02-26T10:33:29;2.08;;;1.40;;
67747;SDS011;54543;50.712;6.070;2024-02-26T10:35:58;1.55;;;1.30;;
67747;SDS011;54543;50.712;6.070;2024-02-26T10:38:23;1.75;;;0.80;;
67747;SDS011;54543;50.712;6.070;2024-02-26T10:40:49;1.13;;;0.90;;
67747;SDS011;54543;50.712;6.070;2024-02-26T10:43:15;1.88;;;1.30;;
67747;SDS011;54543;50.712;6.070;2024-02-26T10:45:42;1.73;;;1.45;;
67747;SDS011;54543;50.712;6.070;2024-02-26T10:48:12;1.65;;;1.23;;
67747;SDS011;54543;50.712;6.070;2024-02-26T10:50:39;0.95;;;0.90;;
67747;SDS011;54543;50.712;6.070;2024-02-26T10:53:16;0.85;;;0.80;;
67747;SDS011;54543;50.712;6.070;2024-02-26T10:55:43;1.08;;;0.82;;
67747;SDS011;54543;50.712;6.070;2024-02-26T10:58:19;0.82;;;0.70;;
67747;SDS011;54543;50.712;6.070;2024-02-26T11:00:47;1.48;;;1.30;;
67747;SDS011;54543;50.712;6.070;2024-02-26T11:03:14;1.15;;;0.90;;
67747;SDS011;54543;50.712;6.070;2024-02-26T11:05:45;2.95;;;1.35;;
67747;SDS011;54543;50.712;6.070;2024-02-26T11:08:15;2.83;;;1.25;;
67747;SDS011;54543;50.712;6.070;2024-02-26T11:10:50;2.42;;;1.10;;
67747;SDS011;54543;50.712;6.070;2024-02-26T11:13:19;1.65;;;1.13;;
67747;SDS011;54543;50.712;6.070;2024-02-26T11:15:46;2.33;;;0.90;;
67747;SDS011;54543;50.712;6.070;2024-02-26T11:18:14;1.40;;;1.13;;
67747;SDS011;54543;50.712;6.070;2024-02-26T11:20:41;3.28;;;1.58;;
67747;SDS011;54543;50.712;6.070;2024-02-26T11:23:08;2.70;;;1.88;;
67747;SDS011;54543;50.712;6.070;2024-02-26T11:25:34;2.45;;;1.58;;
67747;SDS011;54543;50.712;6.070;2024-02-26T11:28:03;2.70;;;1.75;;
67747;SDS011;54543;50.712;6.070;2024-02-26T11:30:31;3.17;;;2.30;;
67747;SDS011;54543;50.712;6.070;2024-02-26T11:33:03;2.85;;;1.70;;
67747;SDS011;54543;50.712;6.070;2024-02-26T11:35:31;2.45;;;1.80;;
67747;SDS011;54543;50.712;6.070;2024-02-26T11:37:57;4.38;;;2.78;;
67747;SDS011;54543;50.712;6.070;2024-02-26T11:40:26;6.20;;;4.32;;
67747;SDS011;54543;50.712;6.070;2024-02-26T11:42:52;8.50;;;5.35;;
67747;SDS011;54543;50.712;6.070;2024-02-26T11:46:00;8.50;;;6.28;;
67747;SDS011;54543;50.712;6.070;2024-02-26T11:48:13;5.72;;;4.22;;
67747;SDS011;54543;50.712;6.070;2024-02-26T11:50:50;5.60;;;3.88;;
67747;SDS011;54543;50.712;6.070;2024-02-26T11:58:45;4.18;;;2.90;;
67747;SDS011;54543;50.712;6.070;2024-02-26T12:04:19;4.45;;;2.90;;
67747;SDS011;54543;50.712;6.070;2024-02-26T12:12:04;4.90;;;3.22;;
67747;SDS011;54543;50.712;6.070;2024-02-26T12:14:32;3.75;;;2.75;;
67747;SDS011;54543;50.712;6.070;2024-02-26T12:17:22;4.35;;;2.60;;
67747;SDS011;54543;50.712;6.070;2024-02-26T12:19:49;3.70;;;2.65;;
67747;SDS011;54543;50.712;6.070;2024-02-26T12:22:15;6.28;;;4.20;;
67747;SDS011;54543;50.712;6.070;2024-02-26T12:24:41;5.53;;;4.13;;
67747;SDS011;54543;50.712;6.070;2024-02-26T12:27:08;5.10;;;3.65;;
67747;SDS011;54543;50.712;6.070;2024-02-26T12:29:33;4.82;;;3.58;;
67747;SDS011;54543;50.712;6.070;2024-02-26T12:31:59;4.15;;;3.05;;
67747;SDS011;54543;50.712;6.070;2024-02-26T12:34:25;4.25;;;3.20;;
67747;SDS011;54543;50.712;6.070;2024-02-26T12:36:51;4.47;;;3.33;;
67747;SDS011;54543;50.712;6.070;2024-02-26T12:39:19;3.83;;;2.97;;
67747;SDS011;54543;50.712;6.070;2024-02-26T12:41:46;5.10;;;3.60;;
67747;SDS011;54543;50.712;6.070;2024-02-26T12:44:15;5.32;;;3.78;;
67747;SDS011;54543;50.712;6.070;2024-02-26T12:46:41;4.57;;;3.35;;
67747;SDS011;54543;50.712;6.070;2024-02-26T12:49:07;4.63;;;2.83;;
67747;SDS011;54543;50.712;6.070;2024-02-26T12:51:33;8.40;;;5.95;;
67747;SDS011;54543;50.712;6.070;2024-02-26T12:53:59;9.25;;;6.50;;
67747;SDS011;54543;50.712;6.070;2024-02-26T12:56:24;7.43;;;5.28;;
67747;SDS011;54543;50.712;6.070;2024-02-26T12:58:51;7.60;;;5.50;;
67747;SDS011;54543;50.712;6.070;2024-02-26T13:01:18;5.65;;;3.97;;
67747;SDS011;54543;50.712;6.070;2024-02-26T13:03:47;5.80;;;4.20;;
67747;SDS011;54543;50.712;6.070;2024-02-26T13:06:12;4.85;;;3.28;;
67747;SDS011;54543;50.712;6.070;2024-02-26T13:08:38;6.47;;;4.35;;
67747;SDS011;54543;50.712;6.070;2024-02-26T13:11:04;11.35;;;7.88;;
67747;SDS011;54543;50.712;6.070;2024-02-26T13:13:30;11.50;;;6.80;;
67747;SDS011;54543;50.712;6.070;2024-02-26T13:16:06;12.25;;;8.32;;
67747;SDS011;54543;50.712;6.070;2024-02-26T13:18:34;6.70;;;4.55;;
67747;SDS011;54543;50.712;6.070;2024-02-26T13:21:09;4.97;;;3.70;;
67747;SDS011;54543;50.712;6.070;2024-02-26T13:23:36;5.25;;;3.53;;
67747;SDS011;54543;50.712;6.070;2024-02-26T13:26:04;6.70;;;3.95;;
67747;SDS011;54543;50.712;6.070;2024-02-26T13:28:29;4.63;;;3.33;;
67747;SDS011;54543;50.712;6.070;2024-02-26T13:30:55;8.30;;;4.50;;
67747;SDS011;54543;50.712;6.070;2024-02-26T13:33:22;5.43;;;3.92;;
67747;SDS011;54543;50.712;6.070;2024-02-26T13:35:49;5.28;;;3.60;;
67747;SDS011;54543;50.712;6.070;2024-02-26T13:38:15;7.22;;;4.80;;
67747;SDS011;54543;50.712;6.070;2024-02-26T13:40:40;19.85;;;12.65;;
67747;SDS011;54543;50.712;6.070;2024-02-26T13:43:06;8.38;;;6.57;;
67747;SDS011;54543;50.712;6.070;2024-02-26T13:45:35;10.48;;;6.60;;
67747;SDS011;54543;50.712;6.070;2024-02-26T13:48:03;8.00;;;5.63;;
67747;SDS011;54543;50.712;6.070;2024-02-26T13:50:31;7.63;;;4.47;;
67747;SDS011;54543;50.712;6.070;2024-02-26T13:52:56;5.80;;;4.10;;
67747;SDS011;54543;50.712;6.070;2024-02-26T13:55:23;14.23;;;9.20;;
67747;SDS011;54543;50.712;6.070;2024-02-26T13:57:52;20.73;;;13.63;;
67747;SDS011;54543;50.712;6.070;2024-02-26T14:00:21;11.00;;;7.18;;
67747;SDS011;54543;50.712;6.070;2024-02-26T14:05:15;24.17;;;14.13;;
67747;SDS011;54543;50.712;6.070;2024-02-26T14:07:41;8.10;;;5.63;;
67747;SDS011;54543;50.712;6.070;2024-02-26T14:10:23;7.60;;;4.60;;
67747;SDS011;54543;50.712;6.070;2024-02-26T14:12:49;10.82;;;7.20;;
67747;SDS011;54543;50.712;6.070;2024-02-26T14:15:14;6.68;;;4.57;;
67747;SDS011;54543;50.712;6.070;2024-02-26T14:17:46;7.38;;;4.50;;
67747;SDS011;54543;50.712;6.070;2024-02-26T14:20:24;8.95;;;6.20;;
67747;SDS011;54543;50.712;6.070;2024-02-26T14:22:51;9.77;;;5.88;;
67747;SDS011;54543;50.712;6.070;2024-02-26T14:25:25;6.65;;;4.15;;
67747;SDS011;54543;50.712;6.070;2024-02-26T14:27:54;4.75;;;3.50;;
67747;SDS011;54543;50.712;6.070;2024-02-26T14:30:26;5.15;;;2.92;;
67747;SDS011;54543;50.712;6.070;2024-02-26T14:32:51;5.90;;;3.72;;
67747;SDS011;54543;50.712;6.070;2024-02-26T14:37:48;5.03;;;3.10;;
67747;SDS011;54543;50.712;6.070;2024-02-26T14:42:44;4.68;;;2.80;;
67747;SDS011;54543;50.712;6.070;2024-02-26T14:45:15;5.78;;;3.28;;
67747;SDS011;54543;50.712;6.070;2024-02-26T14:47:44;4.60;;;2.53;;
67747;SDS011;54543;50.712;6.070;2024-02-26T14:50:16;4.03;;;2.67;;
67747;SDS011;54543;50.712;6.070;2024-02-26T14:52:41;4.88;;;2.58;;
67747;SDS011;54543;50.712;6.070;2024-02-26T14:55:13;5.07;;;2.78;;
67747;SDS011;54543;50.712;6.070;2024-02-26T14:57:42;4.15;;;3.08;;
67747;SDS011;54543;50.712;6.070;2024-02-26T15:00:13;4.22;;;2.50;;
67747;SDS011;54543;50.712;6.070;2024-02-26T15:02:39;5.38;;;2.88;;
67747;SDS011;54543;50.712;6.070;2024-02-26T15:05:10;5.10;;;3.08;;
67747;SDS011;54543;50.712;6.070;2024-02-26T15:07:42;3.67;;;2.40;;